Time;durP1;ratioP1;P1;durP2;ratioP2;P2;SDS_P1;SDS_P2;PMS_P1;PMS_P2;Temp;Humidity;BMP_temperature;BMP_pressure;BME280_temperature;BME280_humidity;BME280_pressure;Samples;Min_cycle;Max_cycle;Signal;HPM_P1;HPM_P2
2022/08/30 00:03:13;;;;;;;8.85;6.95;;;15.00;99.90;;;;;;5033797;28;20042;-87
2022/08/30 00:05:40;;;;;;;9.23;6.63;;;14.90;99.90;;;;;;4995020;28;20050;-86
2022/08/30 00:08:06;;;;;;;7.70;6.25;;;14.90;99.90;;;;;;4977626;28;20072;-86
2022/08/30 00:10:32;;;;;;;10.18;6.70;;;14.90;99.90;;;;;;5002556;28;20354;-86
2022/08/30 00:12:59;;;;;;;8.48;5.65;;;15.00;99.90;;;;;;5000855;28;20148;-86
2022/08/30 00:15:25;;;;;;;5.82;5.32;;;14.90;99.90;;;;;;5005510;28;20061;-86
2022/08/30 00:17:51;;;;;;;7.30;5.55;;;14.90;99.90;;;;;;5028231;28;20133;-87
2022/08/30 00:20:21;;;;;;;7.82;5.47;;;14.80;99.90;;;;;;5017767;28;20073;-86
2022/08/30 00:22:47;;;;;;;7.13;4.90;;;15.00;99.90;;;;;;4985881;28;20440;-87
2022/08/30 00:25:14;;;;;;;9.57;4.80;;;14.80;99.90;;;;;;5003614;28;20037;-86
2022/08/30 00:27:40;;;;;;;5.93;4.90;;;15.00;99.90;;;;;;5009116;28;20387;-86
2022/08/30 00:30:07;;;;;;;6.47;5.05;;;15.00;99.90;;;;;;5033264;28;20248;-87
2022/08/30 00:32:36;;;;;;;5.85;4.43;;;15.00;99.90;;;;;;4982851;28;20034;-86
2022/08/30 00:35:04;;;;;;;6.20;4.90;;;15.00;99.90;;;;;;5015186;28;20046;-87
2022/08/30 00:37:29;;;;;;;6.75;4.47;;;15.10;99.90;;;;;;4991116;28;20397;-86
2022/08/30 00:39:55;;;;;;;7.68;4.53;;;15.10;99.90;;;;;;4994961;28;20041;-86
2022/08/30 00:42:21;;;;;;;8.60;4.75;;;15.10;99.90;;;;;;5038765;28;20073;-86
2022/08/30 00:44:48;;;;;;;6.18;4.78;;;15.10;99.90;;;;;;4992416;28;20064;-85
2022/08/30 00:47:14;;;;;;;10.38;5.10;;;15.00;99.90;;;;;;5023355;28;20037;-87
2022/08/30 00:49:44;;;;;;;6.85;4.53;;;15.00;99.90;;;;;;4985840;28;20517;-86
2022/08/30 00:52:11;;;;;;;6.95;5.30;;;15.00;99.90;;;;;;5007017;28;20049;-86
2022/08/30 00:54:40;;;;;;;8.75;5.38;;;15.00;99.90;;;;;;4994653;28;20042;-87
2022/08/30 00:57:06;;;;;;;7.38;5.10;;;14.70;99.90;;;;;;4985554;28;20123;-86
2022/08/30 00:59:32;;;;;;;5.50;4.75;;;14.70;99.90;;;;;;4987656;28;20066;-86
2022/08/30 01:02:00;;;;;;;6.55;4.85;;;14.80;99.90;;;;;;5024728;28;20035;-87
2022/08/30 01:04:27;;;;;;;8.15;5.10;;;14.70;99.90;;;;;;5022727;28;20041;-86
2022/08/30 01:06:53;;;;;;;7.30;5.00;;;14.70;99.90;;;;;;4993043;28;20513;-86
2022/08/30 01:09:19;;;;;;;6.70;5.57;;;14.70;99.90;;;;;;4977315;28;20037;-86
2022/08/30 01:11:49;;;;;;;5.72;4.45;;;14.70;99.90;;;;;;4992118;28;20482;-86
2022/08/30 01:14:16;;;;;;;5.82;4.55;;;14.70;99.90;;;;;;4984202;28;20402;-86
2022/08/30 01:16:43;;;;;;;5.60;5.00;;;14.70;99.90;;;;;;4973874;28;20037;-87
2022/08/30 01:19:16;;;;;;;5.90;4.57;;;14.70;99.90;;;;;;4977139;28;20042;-86
2022/08/30 01:21:47;;;;;;;6.40;4.95;;;14.70;99.90;;;;;;4998940;28;20588;-87
2022/08/30 01:24:14;;;;;;;5.82;4.78;;;14.70;99.90;;;;;;5024574;28;20038;-87
2022/08/30 01:26:40;;;;;;;7.75;5.07;;;14.70;99.90;;;;;;4995302;28;20036;-87
2022/08/30 01:29:12;;;;;;;6.65;5.10;;;14.60;99.90;;;;;;5011410;28;20384;-86
2022/08/30 01:31:38;;;;;;;8.25;4.45;;;14.60;99.90;;;;;;4983816;28;20516;-87
2022/08/30 01:34:06;;;;;;;7.45;5.13;;;14.50;99.90;;;;;;4983832;28;20080;-86
2022/08/30 01:36:35;;;;;;;5.53;4.53;;;14.60;99.90;;;;;;4990681;28;20042;-87
2022/08/30 01:39:01;;;;;;;6.78;4.13;;;14.60;99.90;;;;;;5008630;28;20053;-87
2022/08/30 01:41:33;;;;;;;4.90;4.05;;;14.40;99.90;;;;;;4972347;28;20052;-86
2022/08/30 01:44:02;;;;;;;5.72;4.00;;;14.40;99.90;;;;;;5000019;28;20125;-86
2022/08/30 01:46:37;;;;;;;4.75;4.25;;;14.40;99.90;;;;;;4986066;28;20504;-86
2022/08/30 01:49:07;;;;;;;6.85;4.38;;;14.50;99.90;;;;;;4983132;28;20555;-86
2022/08/30 01:51:33;;;;;;;8.18;4.97;;;14.40;99.90;;;;;;5021419;28;20037;-86
2022/08/30 01:53:59;;;;;;;7.38;4.72;;;14.40;99.90;;;;;;4990459;28;20115;-86
2022/08/30 01:56:27;;;;;;;8.05;5.15;;;14.40;99.90;;;;;;5021007;28;20615;-86
2022/08/30 01:58:53;;;;;;;7.20;5.15;;;14.50;99.90;;;;;;5035982;28;20458;-86
2022/08/30 02:01:24;;;;;;;9.30;5.15;;;14.40;99.90;;;;;;5001923;28;20389;-86
2022/08/30 02:03:51;;;;;;;6.43;5.22;;;14.40;99.90;;;;;;5018366;28;20041;-86
2022/08/30 02:06:18;;;;;;;10.30;5.43;;;14.40;99.90;;;;;;5020657;28;20096;-86
2022/08/30 02:08:44;;;;;;;5.80;4.68;;;14.50;99.90;;;;;;5015091;28;20489;-86
2022/08/30 02:11:13;;;;;;;7.18;4.90;;;14.50;99.90;;;;;;4987647;28;20200;-86
2022/08/30 02:13:40;;;;;;;5.03;4.20;;;14.30;99.90;;;;;;5021130;28;20083;-86
2022/08/30 02:16:08;;;;;;;7.25;4.68;;;14.30;99.90;;;;;;5009733;28;20038;-86
2022/08/30 02:18:35;;;;;;;7.40;4.20;;;14.30;99.90;;;;;;5002722;28;20041;-86
2022/08/30 02:21:01;;;;;;;6.40;4.95;;;14.30;99.90;;;;;;5006898;28;20489;-86
2022/08/30 02:23:27;;;;;;;7.03;4.78;;;14.20;99.90;;;;;;4986028;28;20535;-86
2022/08/30 02:25:57;;;;;;;6.50;5.03;;;14.30;99.90;;;;;;5036623;28;20034;-86
2022/08/30 02:28:24;;;;;;;7.05;4.90;;;14.20;99.90;;;;;;5005935;28;20236;-87
2022/08/30 02:30:51;;;;;;;9.43;5.30;;;14.20;99.90;;;;;;5020378;28;20045;-86
2022/08/30 02:33:17;;;;;;;6.18;4.75;;;14.20;99.90;;;;;;4986322;28;20053;-86
2022/08/30 02:35:42;;;;;;;9.90;5.30;;;14.20;99.90;;;;;;5010493;28;20069;-86
2022/08/30 02:38:09;;;;;;;8.80;5.25;;;14.10;99.90;;;;;;4988093;28;20738;-86
2022/08/30 02:40:35;;;;;;;10.05;4.82;;;14.10;99.90;;;;;;5006589;28;20030;-86
2022/08/30 02:43:00;;;;;;;5.90;4.63;;;14.10;99.90;;;;;;5000150;28;20041;-86
2022/08/30 02:45:26;;;;;;;6.55;4.60;;;14.10;99.90;;;;;;4984417;28;20049;-87
2022/08/30 02:47:52;;;;;;;4.60;3.90;;;14.00;99.90;;;;;;5031091;28;20128;-86
2022/08/30 02:50:18;;;;;;;4.10;3.70;;;14.00;99.90;;;;;;5019174;28;20116;-86
2022/08/30 02:52:44;;;;;;;5.13;4.20;;;13.90;99.90;;;;;;4981497;28;20278;-87
2022/08/30 02:55:10;;;;;;;5.80;4.80;;;13.80;99.90;;;;;;4996105;28;20044;-86
2022/08/30 02:57:36;;;;;;;8.95;5.72;;;13.80;99.90;;;;;;4993992;28;20041;-85
2022/08/30 03:00:08;;;;;;;7.15;6.03;;;13.80;99.90;;;;;;5006084;28;21425;-85
2022/08/30 03:02:34;;;;;;;8.93;6.28;;;13.80;99.90;;;;;;5011725;28;20038;-87
2022/08/30 03:05:00;;;;;;;6.03;5.40;;;13.80;99.90;;;;;;4971728;28;20538;-86
2022/08/30 03:07:26;;;;;;;8.07;5.20;;;13.80;99.90;;;;;;5020562;28;20105;-87
2022/08/30 03:09:52;;;;;;;6.60;5.38;;;13.60;99.90;;;;;;4970090;28;20054;-87
2022/08/30 03:12:18;;;;;;;9.18;6.40;;;13.80;99.90;;;;;;5020407;28;20030;-86
2022/08/30 03:14:44;;;;;;;8.15;5.68;;;13.70;99.90;;;;;;4980838;28;20489;-86
2022/08/30 03:17:12;;;;;;;7.95;5.93;;;13.80;99.90;;;;;;5017143;28;20582;-86
2022/08/30 03:22:22;;;;;;;11.48;5.28;;;13.60;99.90;;;;;;4994530;28;20041;-86
2022/08/30 03:24:47;;;;;;;10.13;5.28;;;13.60;99.90;;;;;;5022681;28;20090;-86
2022/08/30 03:27:13;;;;;;;7.35;4.75;;;13.40;99.90;;;;;;4983653;28;20090;-87
2022/08/30 03:29:43;;;;;;;6.60;5.43;;;13.50;99.90;;;;;;4984955;28;20100;-86
2022/08/30 03:32:12;;;;;;;6.28;5.28;;;13.40;99.90;;;;;;5032406;28;20379;-87
2022/08/30 03:34:38;;;;;;;9.05;6.40;;;13.30;99.90;;;;;;5015002;28;20117;-86
2022/08/30 03:37:06;;;;;;;8.05;6.82;;;13.20;99.90;;;;;;4998766;28;20504;-86
2022/08/30 03:39:31;;;;;;;6.22;5.10;;;13.20;99.90;;;;;;5025219;28;20038;-87
2022/08/30 03:41:57;;;;;;;7.03;5.90;;;13.00;99.90;;;;;;5021225;28;20044;-87
2022/08/30 03:44:23;;;;;;;6.43;5.45;;;13.10;99.90;;;;;;4990610;28;20119;-86
2022/08/30 03:46:48;;;;;;;9.23;6.70;;;13.00;99.90;;;;;;5013891;28;20038;-87
2022/08/30 03:49:14;;;;;;;10.63;6.75;;;13.10;99.90;;;;;;5014232;28;20034;-87
2022/08/30 03:51:40;;;;;;;9.32;6.75;;;13.00;99.90;;;;;;4984347;28;20042;-87
2022/08/30 03:54:06;;;;;;;7.82;5.88;;;13.00;99.90;;;;;;4983347;28;20064;-87
2022/08/30 03:56:32;;;;;;;8.35;6.75;;;13.00;99.90;;;;;;4995929;28;20123;-88
2022/08/30 03:58:58;;;;;;;11.20;6.97;;;12.90;99.90;;;;;;5020600;28;20471;-87
2022/08/30 04:01:23;;;;;;;9.68;7.28;;;12.90;99.90;;;;;;5021629;28;20045;-87
2022/08/30 04:03:49;;;;;;;9.82;6.68;;;13.00;99.90;;;;;;4995238;28;20034;-88
2022/08/30 04:06:15;;;;;;;9.55;7.45;;;12.90;99.90;;;;;;5019176;28;20062;-87
2022/08/30 04:08:42;;;;;;;7.40;6.60;;;12.80;99.90;;;;;;5014355;28;20042;-87
2022/08/30 04:11:07;;;;;;;7.07;5.53;;;12.70;99.90;;;;;;4978905;28;20151;-88
2022/08/30 04:13:33;;;;;;;6.90;6.18;;;12.70;99.90;;;;;;5024098;28;20502;-87
2022/08/30 04:15:59;;;;;;;11.35;7.32;;;12.70;99.90;;;;;;5019683;28;20042;-88
2022/08/30 04:18:25;;;;;;;10.20;6.47;;;12.80;99.90;;;;;;5016646;28;20265;-87
2022/08/30 04:20:51;;;;;;;15.23;6.50;;;12.80;99.90;;;;;;5021752;28;20069;-87
2022/08/30 04:23:18;;;;;;;11.07;7.13;;;12.80;99.90;;;;;;5018618;28;20057;-88
2022/08/30 04:25:45;;;;;;;7.30;6.30;;;12.70;99.90;;;;;;4985681;28;20478;-88
2022/08/30 04:28:11;;;;;;;8.38;6.63;;;12.70;99.90;;;;;;4988654;28;21694;-86
2022/08/30 04:30:42;;;;;;;8.32;6.18;;;12.70;99.90;;;;;;5023983;28;20038;-87
2022/08/30 04:33:08;;;;;;;10.02;6.68;;;12.70;99.90;;;;;;5005329;28;20112;-88
2022/08/30 04:35:34;;;;;;;11.10;6.93;;;12.70;99.90;;;;;;4990672;28;20029;-89
2022/08/30 04:38:01;;;;;;;7.38;6.47;;;12.70;99.90;;;;;;5029680;28;20048;-88
2022/08/30 04:40:27;;;;;;;7.07;5.88;;;12.60;99.90;;;;;;4995392;28;20096;-87
2022/08/30 04:42:53;;;;;;;9.05;7.07;;;12.50;99.90;;;;;;5046226;28;20050;-87
2022/08/30 04:45:20;;;;;;;10.40;6.80;;;12.60;99.90;;;;;;4984292;28;20065;-87
2022/08/30 04:47:46;;;;;;;11.55;7.45;;;12.60;99.90;;;;;;4976665;28;20050;-87
2022/08/30 04:50:14;;;;;;;9.45;8.02;;;12.60;99.90;;;;;;4991526;28;20163;-88
2022/08/30 04:52:40;;;;;;;12.50;8.73;;;12.60;99.90;;;;;;5046043;28;20678;-86
2022/08/30 04:55:07;;;;;;;367.95;20.33;;;12.60;99.90;;;;;;4991933;28;20053;-88
2022/08/30 04:57:33;;;;;;;4.88;4.28;;;12.50;99.90;;;;;;4988199;28;20397;-88
2022/08/30 05:00:00;;;;;;;6.55;5.32;;;12.40;99.90;;;;;;5013749;28;20046;-87
2022/08/30 05:02:28;;;;;;;11.98;7.10;;;12.30;99.90;;;;;;4984079;28;20375;-88
2022/08/30 05:07:42;;;;;;;7.85;4.97;;;12.40;99.90;;;;;;5010014;28;20447;-88
2022/08/30 05:10:08;;;;;;;5.60;4.70;;;12.40;99.90;;;;;;4988399;28;20416;-88
2022/08/30 05:12:38;;;;;;;5.32;4.50;;;12.40;99.90;;;;;;5014370;28;20033;-88
2022/08/30 05:15:04;;;;;;;36.72;7.00;;;12.40;99.90;;;;;;5021464;28;20038;-88
2022/08/30 05:17:30;;;;;;;9.30;5.97;;;12.40;99.90;;;;;;4985668;28;20165;-87
2022/08/30 05:19:55;;;;;;;9.15;6.72;;;12.50;99.90;;;;;;4983166;28;20030;-88
2022/08/30 05:22:21;;;;;;;9.65;7.30;;;12.50;99.90;;;;;;4983676;28;20042;-88
2022/08/30 05:24:48;;;;;;;9.52;7.85;;;12.50;99.90;;;;;;5021109;28;20700;-87
2022/08/30 05:27:16;;;;;;;15.00;10.80;;;12.60;99.90;;;;;;4982896;28;20081;-88
2022/08/30 05:29:42;;;;;;;10.82;8.93;;;12.80;99.90;;;;;;5020369;28;21151;-87
2022/08/30 05:32:08;;;;;;;11.10;7.28;;;12.80;99.90;;;;;;5035744;28;20034;-88
2022/08/30 05:34:33;;;;;;;9.30;6.75;;;12.80;99.90;;;;;;4999304;28;20057;-87
2022/08/30 05:37:01;;;;;;;6.95;5.97;;;12.80;99.90;;;;;;5043494;28;20060;-88
2022/08/30 05:39:32;;;;;;;18.05;8.20;;;12.80;99.90;;;;;;4986450;28;20046;-87
2022/08/30 05:41:58;;;;;;;9.30;7.38;;;12.80;99.90;;;;;;5017239;28;20119;-87
2022/08/30 05:44:24;;;;;;;10.32;7.80;;;12.90;99.90;;;;;;5019461;28;20034;-87
2022/08/30 05:46:50;;;;;;;12.00;8.10;;;13.10;99.90;;;;;;4982322;28;20112;-86
2022/08/30 05:49:16;;;;;;;10.13;8.23;;;13.10;99.90;;;;;;5020897;28;20048;-88
2022/08/30 05:51:41;;;;;;;12.02;8.10;;;13.30;99.90;;;;;;5044893;28;20715;-87
2022/08/30 05:54:07;;;;;;;11.00;8.13;;;13.40;99.90;;;;;;5008099;28;20042;-88
2022/08/30 05:56:36;;;;;;;10.10;7.50;;;13.50;99.90;;;;;;4995263;28;20041;-88
2022/08/30 05:59:05;;;;;;;10.18;8.15;;;13.60;99.90;;;;;;5015725;28;20929;-87
2022/08/30 06:01:41;;;;;;;10.50;8.10;;;13.80;99.90;;;;;;4999203;28;20113;-87
2022/08/30 06:04:09;;;;;;;7.93;7.10;;;13.90;99.90;;;;;;5031248;28;20880;-88
2022/08/30 06:06:37;;;;;;;11.50;7.53;;;14.00;99.90;;;;;;5002909;28;20050;-87
2022/08/30 06:09:08;;;;;;;8.32;6.43;;;14.20;99.90;;;;;;5011517;28;20045;-87
2022/08/30 06:11:34;;;;;;;10.23;6.47;;;14.20;99.90;;;;;;4991491;28;20511;-88
2022/08/30 06:14:02;;;;;;;10.38;6.78;;;14.30;99.90;;;;;;5023375;28;20076;-88
2022/08/30 06:16:28;;;;;;;8.18;6.38;;;14.30;99.90;;;;;;4986445;28;20046;-87
2022/08/30 06:18:56;;;;;;;12.32;6.50;;;14.50;99.90;;;;;;5025394;28;20112;-88
2022/08/30 06:21:33;;;;;;;7.05;5.55;;;14.50;99.90;;;;;;5015017;28;20033;-88
2022/08/30 06:23:59;;;;;;;10.32;4.95;;;14.60;99.90;;;;;;5002723;28;20069;-88
2022/08/30 06:26:27;;;;;;;8.50;5.60;;;14.70;99.90;;;;;;5024044;28;20144;-88
2022/08/30 06:28:56;;;;;;;6.82;5.00;;;14.90;99.90;;;;;;5007776;28;20474;-88
2022/08/30 06:31:24;;;;;;;7.15;4.90;;;14.90;99.90;;;;;;4997782;28;20053;-88
2022/08/30 06:33:50;;;;;;;8.88;4.78;;;15.10;99.90;;;;;;4999949;28;20052;-87
2022/08/30 06:36:22;;;;;;;6.45;4.47;;;15.20;99.90;;;;;;5019403;28;20042;-87
2022/08/30 06:38:54;;;;;;;6.97;4.38;;;15.30;99.90;;;;;;4989275;28;20445;-88
2022/08/30 06:41:22;;;;;;;7.18;4.00;;;15.40;99.90;;;;;;4984954;28;20722;-87
2022/08/30 06:43:48;;;;;;;8.32;4.20;;;15.40;99.90;;;;;;5020929;28;20600;-87
2022/08/30 06:46:21;;;;;;;7.65;3.92;;;15.50;99.90;;;;;;5012783;28;20049;-87
2022/08/30 06:48:47;;;;;;;7.07;4.20;;;15.80;99.90;;;;;;4987324;28;20034;-87
2022/08/30 06:51:13;;;;;;;7.03;4.10;;;15.90;99.90;;;;;;5006670;28;20084;-87
2022/08/30 06:53:39;;;;;;;7.10;3.72;;;15.90;99.90;;;;;;5011021;28;20050;-88
2022/08/30 06:56:08;;;;;;;8.32;3.53;;;16.00;99.90;;;;;;4990344;28;20553;-87
2022/08/30 06:58:36;;;;;;;9.48;3.90;;;16.20;99.90;;;;;;4974725;28;20050;-88
2022/08/30 07:01:04;;;;;;;5.60;3.70;;;16.20;99.90;;;;;;4981682;28;20176;-87
2022/08/30 07:03:30;;;;;;;6.60;3.58;;;16.30;99.90;;;;;;5023328;28;20524;-88
2022/08/30 07:05:56;;;;;;;5.03;3.40;;;16.30;99.90;;;;;;4982914;28;20037;-87
2022/08/30 07:08:24;;;;;;;6.60;3.55;;;16.40;99.90;;;;;;4969081;28;20293;-87
2022/08/30 07:10:52;;;;;;;5.43;2.97;;;16.60;99.90;;;;;;5017540;28;20219;-87
2022/08/30 07:13:19;;;;;;;4.43;2.75;;;16.60;29.60;;;;;;4977228;28;20621;-86
2022/08/30 07:15:45;;;;;;;3.90;2.45;;;16.80;1.00;;;;;;5035372;28;20124;-87
2022/08/30 07:21:09;;;;;;;5.05;2.78;;;16.90;1.00;;;;;;5032123;28;20049;-87
2022/08/30 07:23:36;;;;;;;5.03;2.95;;;17.00;86.70;;;;;;5014818;28;20126;-88
2022/08/30 07:26:07;;;;;;;4.55;2.20;;;17.00;99.90;;;;;;5023075;28;20124;-87
2022/08/30 07:28:36;;;;;;;4.70;2.15;;;17.10;99.90;;;;;;5017601;28;20360;-88
2022/08/30 07:31:01;;;;;;;4.78;2.15;;;17.30;1.00;;;;;;5019275;28;20065;-87
2022/08/30 07:33:27;;;;;;;4.40;1.90;;;17.20;99.90;;;;;;5019163;28;20078;-87
2022/08/30 07:35:53;;;;;;;3.83;1.92;;;17.20;1.00;;;;;;5023386;28;20575;-86
2022/08/30 07:38:18;;;;;;;4.97;1.98;;;17.30;99.90;;;;;;5035409;28;20046;-86
2022/08/30 07:40:44;;;;;;;4.22;1.92;;;17.30;1.00;;;;;;5020593;28;20040;-87
2022/08/30 07:43:10;;;;;;;5.15;1.85;;;17.50;9.40;;;;;;5020159;28;20789;-87
2022/08/30 07:45:37;;;;;;;2.38;1.60;;;17.50;99.90;;;;;;4995426;28;20042;-86
2022/08/30 07:48:06;;;;;;;4.22;1.73;;;17.50;99.90;;;;;;5018729;28;20553;-87
2022/08/30 07:50:32;;;;;;;2.40;1.60;;;17.60;2.00;;;;;;4985724;28;20089;-86
2022/08/30 07:52:58;;;;;;;3.95;1.70;;;17.60;1.00;;;;;;5036343;28;20056;-87
2022/08/30 07:55:24;;;;;;;3.30;1.40;;;17.70;1.00;;;;;;5020430;28;20042;-86
2022/08/30 07:57:50;;;;;;;2.40;1.35;;;17.70;99.90;;;;;;5028346;28;20070;-86
2022/08/30 08:00:16;;;;;;;5.13;1.50;;;17.90;99.90;;;;;;5042123;28;20119;-87
2022/08/30 08:02:41;;;;;;;2.65;1.52;;;17.90;99.90;;;;;;4983338;28;20092;-86
2022/08/30 08:05:08;;;;;;;2.28;1.50;;;17.90;63.70;;;;;;5024946;28;20035;-86
2022/08/30 08:07:34;;;;;;;5.55;1.38;;;17.90;1.00;;;;;;4984921;28;20057;-87
2022/08/30 08:10:01;;;;;;;3.17;1.55;;;18.00;99.90;;;;;;5006724;28;20461;-86
2022/08/30 08:12:26;;;;;;;5.20;1.48;;;18.00;99.90;;;;;;5025574;28;20040;-87
2022/08/30 08:14:52;;;;;;;4.53;1.98;;;18.10;99.90;;;;;;5012352;28;20038;-86
2022/08/30 08:17:18;;;;;;;2.78;1.50;;;18.20;99.90;;;;;;5020248;28;20041;-87
2022/08/30 08:19:44;;;;;;;4.22;1.63;;;18.30;99.90;;;;;;4981855;28;20101;-86
2022/08/30 08:22:13;;;;;;;1.58;1.30;;;18.30;99.90;;;;;;5019212;28;20041;-87
2022/08/30 08:24:38;;;;;;;4.40;1.20;;;18.30;99.90;;;;;;5010676;28;20094;-86
2022/08/30 08:27:04;;;;;;;1.88;1.10;;;18.40;99.90;;;;;;5021261;28;20111;-87
2022/08/30 08:29:30;;;;;;;3.75;1.30;;;18.60;99.90;;;;;;5019835;28;20041;-87
2022/08/30 08:31:56;;;;;;;2.55;1.30;;;18.70;99.90;;;;;;5003061;28;20056;-87
2022/08/30 08:34:22;;;;;;;2.50;1.30;;;18.80;99.90;;;;;;5029672;28;20049;-86
2022/08/30 08:36:51;;;;;;;3.70;1.80;;;18.80;90.80;;;;;;5018486;28;20041;-86
2022/08/30 08:39:17;;;;;;;2.10;1.33;;;18.80;99.90;;;;;;5021703;28;20034;-87
2022/08/30 08:42:02;;;;;;;2.28;1.33;;;18.90;1.00;;;;;;5045628;28;20041;-87
2022/08/30 08:44:32;;;;;;;3.08;1.33;;;19.00;1.00;;;;;;5036013;28;20473;-87
2022/08/30 08:47:27;;;;;;;2.42;1.40;;;19.10;1.00;;;;;;4987556;28;20126;-87
2022/08/30 08:49:57;;;;;;;3.80;1.52;;;19.30;1.00;;;;;;4972155;28;20046;-86
2022/08/30 08:55:28;;;;;;;3.13;1.20;;;19.60;99.90;;;;;;5008377;28;20111;-86
2022/08/30 08:57:58;;;;;;;1.40;1.05;;;19.70;99.90;;;;;;5021225;28;20045;-87
2022/08/30 09:00:24;;;;;;;2.28;1.30;;;19.60;99.90;;;;;;5016998;28;20057;-87
2022/08/30 09:02:58;;;;;;;2.63;1.10;;;19.80;99.90;;;;;;5020316;28;20332;-87
2022/08/30 09:05:27;;;;;;;1.90;1.60;;;19.80;99.90;;;;;;4991353;28;20034;-86
2022/08/30 09:08:00;;;;;;;3.90;1.60;;;19.90;99.90;;;;;;5017266;28;20068;-87
2022/08/30 09:10:28;;;;;;;1.70;1.15;;;20.20;99.90;;;;;;4982827;28;20112;-87
2022/08/30 09:12:54;;;;;;;2.72;1.30;;;20.50;99.90;;;;;;4986747;28;20478;-86
2022/08/30 09:15:27;;;;;;;2.83;1.30;;;20.60;99.90;;;;;;5007766;28;20038;-86
2022/08/30 09:18:02;;;;;;;2.30;1.17;;;20.60;99.90;;;;;;5000153;28;20056;-86
2022/08/30 09:20:44;;;;;;;3.85;1.40;;;21.10;99.90;;;;;;5020001;28;20045;-86
2022/08/30 09:23:22;;;;;;;3.15;1.27;;;21.30;99.90;;;;;;5019343;28;20520;-86
2022/08/30 09:26:08;;;;;;;2.83;1.27;;;21.40;96.60;;;;;;5032337;28;20423;-87
2022/08/30 09:28:45;;;;;;;2.10;1.30;;;21.10;9.40;;;;;;4984474;28;20056;-87
2022/08/30 09:31:27;;;;;;;3.65;1.23;;;20.50;46.60;;;;;;5041708;28;20053;-87
2022/08/30 09:34:08;;;;;;;4.40;1.13;;;20.70;47.00;;;;;;4994387;28;20046;-87
2022/08/30 09:36:43;;;;;;;5.60;1.73;;;21.20;1.00;;;;;;5022292;28;20049;-86
2022/08/30 09:39:19;;;;;;;3.35;1.27;;;21.10;1.00;;;;;;4988089;28;20042;-86
2022/08/30 09:41:48;;;;;;;3.28;1.27;;;21.40;1.00;;;;;;4994837;28;20156;-86
2022/08/30 09:44:18;;;;;;;2.20;1.13;;;20.80;1.00;;;;;;4992744;28;20161;-87
2022/08/30 09:46:55;;;;;;;3.83;1.40;;;20.70;1.00;;;;;;4983589;28;20133;-87
2022/08/30 09:49:35;;;;;;;3.33;1.40;;;20.80;1.00;;;;;;5015999;28;20508;-88
2022/08/30 09:52:06;;;;;;;2.42;1.27;;;21.20;1.00;;;;;;5007052;28;20062;-86
2022/08/30 09:54:52;;;;;;;3.47;1.45;;;21.70;1.00;;;;;;4992935;28;20166;-86
2022/08/30 09:57:18;;;;;;;4.03;1.20;;;21.60;1.00;;;;;;5008306;28;20046;-86
2022/08/30 09:59:59;;;;;;;3.42;1.20;;;21.40;1.00;;;;;;4997925;28;20485;-86
2022/08/30 10:02:45;;;;;;;2.15;1.23;;;21.30;1.00;;;;;;5018461;28;20046;-86
2022/08/30 10:05:32;;;;;;;2.55;1.25;;;21.90;1.00;;;;;;5020993;28;20116;-86
2022/08/30 10:08:28;;;;;;;3.83;1.20;;;22.40;1.00;;;;;;4985944;28;20576;-86
2022/08/30 10:11:10;;;;;;;1.55;1.00;;;22.60;1.00;;;;;;5026282;28;20176;-87
2022/08/30 10:14:33;;;;;;;2.85;1.20;;;22.70;99.90;;;;;;5031178;28;20053;-87
2022/08/30 10:17:21;;;;;;;1.95;1.10;;;22.80;99.90;;;;;;5001482;28;20046;-86
2022/08/30 10:20:21;;;;;;;2.95;1.30;;;23.00;99.90;;;;;;5001325;28;20480;-87
2022/08/30 10:23:20;;;;;;;3.47;1.15;;;22.40;99.90;;;;;;4979662;28;20505;-84
2022/08/30 10:26:44;;;;;;;2.60;1.00;;;22.70;99.90;;;;;;5007384;28;20318;-85
2022/08/30 10:29:21;;;;;;;1.65;1.08;;;22.80;99.90;;;;;;4949434;28;20435;-85
2022/08/30 10:32:15;;;;;;;5.22;1.60;;;23.10;99.90;;;;;;4979975;28;20050;-85
2022/08/30 10:34:56;;;;;;;1.77;1.15;;;22.80;99.90;;;;;;5018120;28;20042;-84
2022/08/30 10:37:28;;;;;;;2.22;1.27;;;21.70;99.90;;;;;;4998992;28;20033;-84
2022/08/30 10:43:21;;;;;;;1.63;1.15;;;22.70;99.90;;;;;;5031310;28;20288;-85
2022/08/30 10:45:50;;;;;;;3.30;1.10;;;22.40;99.90;;;;;;4988153;28;20041;-85
2022/08/30 10:48:23;;;;;;;2.35;1.10;;;22.30;99.90;;;;;;4980268;28;20038;-84
2022/08/30 10:50:52;;;;;;;2.25;1.40;;;21.90;99.90;;;;;;5018913;28;20156;-85
2022/08/30 10:53:30;;;;;;;2.58;1.25;;;22.20;99.90;;;;;;5015205;28;20132;-85
2022/08/30 10:56:04;;;;;;;2.38;1.20;;;22.50;99.90;;;;;;4999766;28;20081;-84
2022/08/30 10:58:30;;;;;;;2.20;1.30;;;22.60;99.90;;;;;;5032030;28;20037;-84
2022/08/30 11:01:11;;;;;;;1.60;1.05;;;22.30;99.90;;;;;;5017004;28;20040;-84
2022/08/30 11:03:49;;;;;;;3.65;1.00;;;23.20;99.90;;;;;;5016699;28;20042;-85
2022/08/30 11:06:15;;;;;;;3.03;0.95;;;23.20;99.90;;;;;;4986718;28;20178;-85
2022/08/30 11:09:13;;;;;;;2.67;1.20;;;23.40;99.90;;;;;;5004491;28;20655;-85
2022/08/30 11:11:44;;;;;;;4.10;1.17;;;23.00;99.90;;;;;;4994389;28;20034;-85
2022/08/30 11:14:14;;;;;;;2.47;1.38;;;23.00;99.90;;;;;;5012524;28;20445;-84
2022/08/30 11:16:44;;;;;;;3.13;1.00;;;22.70;99.90;;;;;;5036697;28;20049;-84
2022/08/30 11:19:18;;;;;;;2.30;1.10;;;23.30;99.90;;;;;;4991736;28;20102;-85
2022/08/30 11:21:45;;;;;;;1.67;0.98;;;23.30;99.90;;;;;;4993742;28;20034;-84
2022/08/30 11:24:24;;;;;;;3.42;1.00;;;23.20;99.90;;;;;;5032803;28;20038;-84
2022/08/30 11:26:56;;;;;;;1.48;1.00;;;23.40;99.90;;;;;;4990096;28;20049;-84
2022/08/30 11:29:42;;;;;;;1.70;1.35;;;23.60;99.90;;;;;;5041946;28;20484;-85
2022/08/30 11:32:16;;;;;;;3.67;1.35;;;24.00;99.90;;;;;;4986387;28;20076;-84
2022/08/30 11:34:45;;;;;;;4.28;1.20;;;24.00;99.90;;;;;;4978563;28;20104;-85
2022/08/30 11:37:36;;;;;;;2.05;1.38;;;23.60;99.90;;;;;;5012537;28;20104;-84
2022/08/30 11:40:19;;;;;;;1.98;0.90;;;23.60;99.90;;;;;;4999363;28;20037;-84
2022/08/30 11:42:47;;;;;;;1.33;1.00;;;23.80;99.90;;;;;;4994896;28;20049;-85
2022/08/30 11:45:21;;;;;;;3.15;1.25;;;24.00;99.90;;;;;;5046878;28;20042;-85
2022/08/30 11:47:52;;;;;;;1.38;1.00;;;24.10;99.90;;;;;;5012189;28;20044;-84
2022/08/30 11:50:56;;;;;;;2.47;0.95;;;23.80;99.90;;;;;;4970812;28;20042;-84
2022/08/30 11:53:31;;;;;;;1.48;1.10;;;24.20;99.90;;;;;;5031473;28;20042;-85
2022/08/30 11:57:04;;;;;;;2.33;1.10;;;23.90;99.90;;;;;;5017909;28;20053;-84
2022/08/30 12:00:02;;;;;;;2.67;1.08;;;24.30;99.90;;;;;;4916314;29;20209;-84
2022/08/30 12:02:49;;;;;;;2.25;1.17;;;24.70;99.90;;;;;;4969987;28;20053;-85
2022/08/30 12:05:41;;;;;;;1.05;0.93;;;24.70;99.90;;;;;;5022104;28;20064;-85
2022/08/30 12:08:19;;;;;;;3.97;1.17;;;24.50;99.90;;;;;;5025199;28;20097;-84
2022/08/30 12:10:56;;;;;;;1.88;1.00;;;24.70;99.90;;;;;;4989131;28;20037;-84
2022/08/30 12:13:37;;;;;;;3.40;1.10;;;24.80;99.90;;;;;;5021077;28;20037;-84
2022/08/30 12:16:13;;;;;;;1.52;1.17;;;24.70;99.90;;;;;;5018270;28;20482;-84
2022/08/30 12:18:59;;;;;;;2.30;0.98;;;24.90;99.90;;;;;;5013004;28;20045;-84
2022/08/30 12:21:31;;;;;;;2.08;1.13;;;25.30;99.90;;;;;;5020814;28;20034;-84
2022/08/30 12:24:06;;;;;;;1.55;0.90;;;24.70;99.90;;;;;;4979222;28;20046;-83
2022/08/30 12:26:38;;;;;;;1.08;0.90;;;25.20;99.90;;;;;;4990243;28;20045;-84
2022/08/30 12:29:10;;;;;;;2.63;1.27;;;25.00;99.90;;;;;;5005369;28;20041;-84
2022/08/30 12:31:56;;;;;;;2.42;0.80;;;24.90;99.90;;;;;;5028484;28;20088;-84
2022/08/30 12:34:29;;;;;;;3.85;1.10;;;24.90;99.90;;;;;;5012412;28;20089;-84
2022/08/30 12:37:06;;;;;;;2.35;1.13;;;24.50;99.90;;;;;;4984126;28;20054;-84
2022/08/30 12:39:43;;;;;;;5.40;0.90;;;25.00;99.90;;;;;;4985446;28;20030;-83
2022/08/30 12:42:22;;;;;;;1.75;1.13;;;25.30;99.90;;;;;;4990106;28;20045;-84
2022/08/30 12:44:51;;;;;;;1.25;1.00;;;24.90;99.90;;;;;;5012285;28;20080;-84
2022/08/30 12:47:24;;;;;;;1.10;0.88;;;24.60;99.90;;;;;;4988507;28;20042;-84
2022/08/30 12:49:51;;;;;;;1.40;1.00;;;25.70;99.90;;;;;;5012280;28;20362;-84
2022/08/30 12:52:30;;;;;;;1.50;1.30;;;25.80;99.90;;;;;;5001859;28;20343;-84
2022/08/30 12:55:09;;;;;;;2.50;1.00;;;26.00;99.90;;;;;;5000262;28;20049;-85
2022/08/30 12:57:43;;;;;;;2.80;1.15;;;26.10;99.90;;;;;;5006453;28;20635;-84
2022/08/30 13:00:29;;;;;;;3.28;1.20;;;25.80;99.90;;;;;;5029503;28;20159;-84
2022/08/30 13:03:00;;;;;;;4.80;0.98;;;25.80;99.90;;;;;;5031975;28;20053;-84
2022/08/30 13:05:41;;;;;;;2.90;0.90;;;25.20;98.60;;;;;;4977818;28;20136;-84
2022/08/30 13:08:24;;;;;;;2.95;1.10;;;24.50;96.30;;;;;;4989251;28;20509;-84
2022/08/30 13:10:54;;;;;;;1.77;0.90;;;24.50;99.90;;;;;;5002730;28;20089;-82
2022/08/30 13:13:31;;;;;;;2.10;1.10;;;24.90;99.70;;;;;;4978826;28;20054;-83
2022/08/30 13:16:23;;;;;;;2.45;1.23;;;24.20;95.50;;;;;;5003578;28;20172;-84
2022/08/30 13:19:37;;;;;;;4.35;1.15;;;25.10;98.60;;;;;;5000664;28;20038;-84
2022/08/30 13:22:06;;;;;;;3.40;1.00;;;25.20;99.90;;;;;;4992055;28;20084;-84